Ada, Minnesota
Current Conditions -  °F | °C
As of 8:35 AM on Monday 26 Jan 2015 (Local Time) from K3N8 Reporting Station
Overcast Overcast  
Wind Chill: -6°   Ceiling: 4000
Heat Index: -1°   Visibility: 10mi
Dew Point: -2°   Wind: 14mph
Humidity: 91%   Direction: 290°WNW
Pressure: 29.68"   Gusts: NA
Location:  47.3°N, 96.52°W
Report Text: K3N8 261435Z AUTO 29012KT 10SM SCT034 OVC040 M01/M02 A2968 RMK AO2 T10071020
Loading
Personal Weather Stations






























Interactive Weather Map New forecast layout! Learn more

10-Day Weather Forecast

Advertisements
Track Severe Weather on mobile